createdAt,value
2023-01-17T00:05:06.994Z,96888.97
2023-01-17T00:10:13.147Z,96884.19
2023-01-17T00:15:16.676Z,96884.41
2023-01-17T00:20:40.153Z,96881.72
2023-01-17T00:26:01.663Z,96884.56
2023-01-17T00:31:03.922Z,96880.41
2023-01-17T00:36:06.272Z,96887.06
2023-01-17T00:41:10.293Z,96888.50
2023-01-17T00:46:30.728Z,96895.91
2023-01-17T00:51:52.046Z,96902.69
2023-01-17T00:57:13.847Z,96901.22
2023-01-17T01:02:34.356Z,96908.63
2023-01-17T01:07:54.789Z,96903.22
2023-01-17T01:13:16.710Z,96912.50
2023-01-17T01:18:36.880Z,96911.41
2023-01-17T01:23:57.128Z,96923.53
2023-01-17T01:29:18.866Z,96926.59
2023-01-17T01:34:21.685Z,96925.53
2023-01-17T01:39:24.602Z,96930.91
2023-01-17T01:44:45.712Z,96937.63
2023-01-17T01:49:48.712Z,96937.00
2023-01-17T01:54:53.201Z,96936.97
2023-01-17T01:59:58.744Z,96937.53
2023-01-17T02:05:04.510Z,96943.09
2023-01-17T02:10:07.916Z,96955.66
2023-01-17T02:15:12.702Z,96945.50
2023-01-17T02:20:32.337Z,96960.09
2023-01-17T02:25:48.440Z,96969.31
2023-01-17T02:30:53.122Z,96975.88
2023-01-17T02:35:59.707Z,96975.22
2023-01-17T02:41:05.234Z,96974.22
2023-01-17T02:46:09.992Z,96968.63
2023-01-17T02:52:00.545Z,96985.06
2023-01-17T02:57:12.761Z,96982.75
2023-01-17T03:02:22.410Z,96990.53
2023-01-17T03:07:26.725Z,96988.03
2023-01-17T03:12:29.873Z,96993.56
2023-01-17T03:17:34.050Z,96999.28
2023-01-17T03:22:36.880Z,97007.06
2023-01-17T03:27:39.836Z,97027.63
2023-01-17T03:32:43.972Z,97032.53
2023-01-17T03:37:46.795Z,97030.03
2023-01-17T03:42:49.661Z,97037.63
2023-01-17T03:47:53.983Z,97040.66
2023-01-17T03:52:56.733Z,97046.56
2023-01-17T03:57:59.560Z,97055.63
2023-01-17T04:03:03.686Z,97070.16
2023-01-17T04:08:07.375Z,97075.50
2023-01-17T04:13:10.246Z,97077.53
2023-01-17T04:18:14.371Z,97085.94
2023-01-17T04:23:17.236Z,97088.81
2023-01-17T04:28:20.082Z,97099.03
2023-01-17T04:33:24.247Z,97105.19
2023-01-17T04:38:27.047Z,97108.25
2023-01-17T04:43:29.889Z,97100.41
2023-01-17T04:48:34.046Z,97106.16
2023-01-17T04:53:36.929Z,97119.66
2023-01-17T04:58:39.707Z,97132.41
2023-01-17T05:03:43.810Z,97130.09
2023-01-17T05:08:46.649Z,97130.09
2023-01-17T05:13:49.493Z,97137.28
2023-01-17T05:18:53.859Z,97149.00
2023-01-17T05:23:56.636Z,97163.38
2023-01-17T05:28:59.456Z,97172.56
2023-01-17T05:34:03.652Z,97184.47
2023-01-17T05:39:06.719Z,97194.97
2023-01-17T05:44:09.622Z,97187.31
2023-01-17T05:49:13.785Z,97203.34
2023-01-17T05:54:17.108Z,97214.22
2023-01-17T05:59:28.697Z,97214.22
2023-01-17T06:04:40.522Z,97233.94
2023-01-17T06:09:43.523Z,97236.78
2023-01-17T06:14:46.311Z,97254.50
2023-01-17T06:19:50.432Z,97256.50
2023-01-17T06:24:53.244Z,97279.72
2023-01-17T06:29:56.134Z,97279.88
2023-01-17T06:35:00.248Z,97291.41
2023-01-17T06:40:03.797Z,97288.06
2023-01-17T06:45:07.617Z,97301.44
2023-01-17T06:50:13.577Z,97306.97
2023-01-17T06:55:16.594Z,97316.00
2023-01-17T07:00:20.100Z,97318.66
2023-01-17T07:05:24.456Z,97333.88
2023-01-17T07:10:27.355Z,97326.00
2023-01-17T07:15:30.130Z,97335.03
2023-01-17T07:20:34.277Z,97342.22
2023-01-17T07:25:37.104Z,97352.09
2023-01-17T07:30:39.860Z,97360.28
2023-01-17T07:35:44.053Z,97365.81
2023-01-17T07:40:46.862Z,97364.13
2023-01-17T07:45:50.728Z,97363.31
2023-01-17T07:50:55.924Z,97369.50
2023-01-17T07:56:01.825Z,97371.31
2023-01-17T08:01:05.284Z,97375.34
2023-01-17T08:06:16.799Z,97383.31
2023-01-17T08:11:19.837Z,97382.63
2023-01-17T08:16:22.810Z,97377.75
2023-01-17T08:21:26.989Z,97392.66
2023-01-17T08:26:29.844Z,97399.13
2023-01-17T08:31:33.710Z,97424.13
2023-01-17T08:36:37.963Z,97418.28
2023-01-17T08:41:40.789Z,97424.72
2023-01-17T08:46:44.123Z,97417.22
2023-01-17T08:51:48.326Z,97424.50
2023-01-17T08:56:52.733Z,97431.91
2023-01-17T09:01:58.207Z,97438.13
2023-01-17T09:07:03.006Z,97448.97
2023-01-17T09:12:06.688Z,97466.16
2023-01-17T09:17:09.451Z,97479.97
2023-01-17T09:22:13.553Z,97480.59
2023-01-17T09:27:16.276Z,97490.00
2023-01-17T09:32:19.075Z,97490.84
2023-01-17T09:37:23.227Z,97480.13
2023-01-17T09:42:28.864Z,97497.53
2023-01-17T09:47:34.214Z,97498.75
2023-01-17T09:52:38.365Z,97506.13
2023-01-17T09:57:44.920Z,97513.13
2023-01-17T10:03:02.071Z,97519.50
2023-01-17T10:08:12.503Z,97521.34
2023-01-17T10:13:24.995Z,97528.72
2023-01-17T10:18:41.635Z,97524.34
2023-01-17T10:24:03.581Z,97530.69
2023-01-17T10:29:07.139Z,97527.69
2023-01-17T10:34:13.900Z,97517.81
2023-01-17T10:39:20.972Z,97517.16
2023-01-17T10:44:26.199Z,97520.84
2023-01-17T10:49:29.032Z,97526.19
2023-01-17T10:54:51.396Z,97508.97
2023-01-17T10:59:54.593Z,97519.69
2023-01-17T11:04:57.446Z,97519.31
2023-01-17T11:10:01.646Z,97507.97
2023-01-17T11:15:07.556Z,97506.75
2023-01-17T11:20:16.975Z,97514.25
2023-01-17T11:25:23.106Z,97506.91
2023-01-17T11:30:29.367Z,97497.53
2023-01-17T11:35:32.286Z,97511.56
2023-01-17T11:40:39.603Z,97489.34
2023-01-17T11:45:42.423Z,97495.69
2023-01-17T11:50:47.493Z,97499.38
2023-01-17T11:55:59.362Z,97508.25
2023-01-17T12:01:07.683Z,97509.34
2023-01-17T12:06:12.718Z,97514.78
2023-01-17T12:11:19.308Z,97514.97
2023-01-17T12:16:30.368Z,97520.31
2023-01-17T12:21:38.678Z,97519.13
2023-01-17T12:26:43.516Z,97527.81
2023-01-17T12:31:48.031Z,97526.97
2023-01-17T12:36:53.232Z,97535.84
2023-01-17T12:42:00.451Z,97542.69
2023-01-17T12:47:04.694Z,97551.72
2023-01-17T12:52:12.013Z,97555.56
2023-01-17T12:57:16.993Z,97547.72
2023-01-17T13:02:23.778Z,97552.59
2023-01-17T13:07:30.820Z,97560.81
2023-01-17T13:12:35.085Z,97560.81
2023-01-17T13:17:40.362Z,97560.97
2023-01-17T13:22:43.140Z,97558.97
2023-01-17T13:28:02.951Z,97565.97
2023-01-17T13:33:30.406Z,97587.38
2023-01-17T13:38:38.053Z,97586.38
2023-01-17T13:44:03.280Z,97593.75
2023-01-17T13:49:23.214Z,97589.56
2023-01-17T13:54:31.297Z,97589.56
2023-01-17T13:59:35.879Z,97596.75
2023-01-17T14:05:15.039Z,97605.28
2023-01-17T14:10:34.862Z,97595.63
2023-01-17T14:15:49.593Z,97604.00
2023-01-17T14:21:04.418Z,97613.00
2023-01-17T14:26:36.565Z,97613.50
2023-01-17T14:31:40.757Z,97621.63
2023-01-17T14:36:43.508Z,97621.25
2023-01-17T14:41:46.290Z,97630.44
2023-01-17T14:46:50.591Z,97626.25
2023-01-17T14:52:02.746Z,97621.03
2023-01-17T14:57:24.545Z,97619.00
2023-01-17T15:02:28.920Z,97613.16
2023-01-17T15:07:32.256Z,97624.16
2023-01-17T15:12:38.719Z,97630.84
2023-01-17T15:17:42.937Z,97626.50
2023-01-17T15:22:45.767Z,97627.53
2023-01-17T15:27:48.599Z,97636.56
2023-01-17T15:32:53.018Z,97622.66
2023-01-17T15:37:57.023Z,97631.50
2023-01-17T15:43:00.864Z,97629.16
2023-01-17T15:48:33.412Z,97641.16
2023-01-17T15:53:38.256Z,97648.81
2023-01-17T15:58:41.113Z,97642.13
2023-01-17T16:03:54.516Z,97650.63
2023-01-17T16:08:57.366Z,97645.78
2023-01-17T16:14:00.110Z,97647.13
2023-01-17T16:19:04.272Z,97652.31
2023-01-17T16:24:09.581Z,97671.38
2023-01-17T16:29:12.342Z,97668.31
2023-01-17T16:34:16.636Z,97659.94
2023-01-17T16:39:19.369Z,97636.66
2023-01-17T16:44:22.131Z,97639.00
2023-01-17T16:49:26.656Z,97643.16
2023-01-17T16:54:29.495Z,97646.50
2023-01-17T16:59:42.542Z,97634.78
2023-01-17T17:04:54.314Z,97639.78
2023-01-17T17:09:57.274Z,97636.28
2023-01-17T17:15:00.032Z,97645.16
2023-01-17T17:20:04.531Z,97647.97
2023-01-17T17:25:07.768Z,97629.25
2023-01-17T17:30:12.368Z,97639.47
2023-01-17T17:35:17.087Z,97639.28
2023-01-17T17:40:20.643Z,97627.28
2023-01-17T17:45:23.535Z,97638.19
2023-01-17T17:50:27.711Z,97633.84
2023-01-17T17:55:30.554Z,97633.06
2023-01-17T18:00:33.357Z,97640.75
2023-01-17T18:05:39.001Z,97653.50
2023-01-17T18:10:42.467Z,97659.69
2023-01-17T18:15:45.335Z,97662.50
2023-01-17T18:20:49.516Z,97653.97
2023-01-17T18:25:52.306Z,97652.31
2023-01-17T18:30:55.161Z,97657.16
2023-01-17T18:36:00.207Z,97653.94
2023-01-17T18:41:03.484Z,97656.25
2023-01-17T18:46:06.644Z,97659.25
2023-01-17T18:51:11.867Z,97649.34
2023-01-17T18:56:16.608Z,97656.88
2023-01-17T19:01:20.417Z,97650.16
2023-01-17T19:06:25.377Z,97655.13
2023-01-17T19:11:28.548Z,97651.09
2023-01-17T19:16:32.704Z,97651.94
2023-01-17T19:21:36.981Z,97652.78
2023-01-17T19:26:39.833Z,97667.47
2023-01-17T19:31:43.724Z,97668.13
2023-01-17T19:36:48.213Z,97681.50
2023-01-17T19:41:51.111Z,97694.38
2023-01-17T19:46:53.905Z,97690.88
2023-01-17T19:51:58.095Z,97697.72
2023-01-17T19:57:01.095Z,97707.59
2023-01-17T20:02:04.051Z,97724.13
2023-01-17T20:07:08.338Z,97729.50
2023-01-17T20:12:12.214Z,97736.38
2023-01-17T20:17:14.971Z,97744.88
2023-01-17T20:22:19.126Z,97741.38
2023-01-17T20:27:26.491Z,97743.03
2023-01-17T20:32:29.303Z,97753.41
2023-01-17T20:37:33.409Z,97749.72
2023-01-17T20:42:36.934Z,97760.59
2023-01-17T20:47:39.683Z,97763.94
2023-01-17T20:52:43.841Z,97761.75
2023-01-17T20:57:46.599Z,97759.06
2023-01-17T21:02:49.889Z,97763.41
2023-01-17T21:07:54.149Z,97760.91
2023-01-17T21:12:56.997Z,97763.59
2023-01-17T21:17:59.822Z,97763.03
2023-01-17T21:23:08.385Z,97761.38
2023-01-17T21:28:11.219Z,97767.56
2023-01-17T21:33:14.058Z,97774.63
2023-01-17T21:38:18.186Z,97768.41
2023-01-17T21:43:21.055Z,97774.63
2023-01-17T21:48:23.812Z,97774.25
2023-01-17T21:53:29.979Z,97782.31
2023-01-17T21:58:44.743Z,97774.44
2023-01-17T22:03:49.117Z,97773.44
2023-01-17T22:08:53.588Z,97768.59
2023-01-17T22:13:58.756Z,97759.59
2023-01-17T22:19:01.852Z,97759.28
2023-01-17T22:24:07.601Z,97749.94
2023-01-17T22:29:10.804Z,97746.75
2023-01-17T22:34:13.942Z,97737.25
2023-01-17T22:39:18.196Z,97724.53
2023-01-17T22:44:21.002Z,97725.28
2023-01-17T22:49:24.402Z,97718.06
2023-01-17T22:54:28.573Z,97706.53
2023-01-17T22:59:33.806Z,97697.97
2023-01-17T23:04:36.754Z,97694.47
2023-01-17T23:09:40.944Z,97690.97
2023-01-17T23:15:01.555Z,97688.66
2023-01-17T23:20:04.669Z,97686.16
2023-01-17T23:25:10.916Z,97682.63
2023-01-17T23:30:14.674Z,97673.78
2023-01-17T23:35:18.179Z,97655.03
2023-01-17T23:40:22.486Z,97650.00
2023-01-17T23:45:25.236Z,97645.66
2023-01-17T23:50:28.185Z,97652.69
2023-01-17T23:55:32.351Z,97660.06
